KHFF

Mackall AAF Airport

Camp Mackall, North Carolina, USA
METAR KHFF 231056Z AUTO 24010KT 10SM BKN007 21/20 A3008 RMK AO2 SLP199 T02120201 $
Observed Flight Rules
May-23 @ 10:56 UTC (17 minutes ago) Instrument Flight Rules
Wind Visibility Clouds
240° at 10 knots 10 miles
  • Broken at 700' AGL
Temperatures Readings
Current 21°C / 70°F
Dewpoint 20°C / 68°F
Humidity 94%
Altimeter 30.08" Hg
Pressure 1019.9 hPa
Elevation 115
METAR KHFF 231056Z AUTO 24010KT 10SM BKN007 21/20 A3008 RMK AO2 SLP199 T02120201 $
Observed Flight Rules
May-23 @ 10:56 UTC
(17 minutes ago)
IFR
Wind Visibility
240° at 10 knots 10 miles
Clouds
  • Broken at 700' AGL
Temperature Dewpoint
21°C / 70°F 20°C / 68°F
Humidity Altimeter Pressure
94% 30.08" Hg 1019.9 hPa